createdAt,value
2023-07-10T00:01:07.948Z,75.50
2023-07-10T00:04:49.779Z,75.50
2023-07-10T00:08:31.569Z,75.60
2023-07-10T00:12:17.518Z,75.70
2023-07-10T00:15:59.365Z,75.70
2023-07-10T00:19:42.655Z,75.80
2023-07-10T00:23:24.440Z,75.90
2023-07-10T00:27:13.410Z,75.90
2023-07-10T00:30:55.252Z,76.00
2023-07-10T00:34:37.026Z,76.00
2023-07-10T00:38:28.849Z,76.00
2023-07-10T00:42:10.608Z,76.10
2023-07-10T00:45:52.610Z,76.00
2023-07-10T00:49:46.439Z,76.10
2023-07-10T00:53:33.556Z,76.20
2023-07-10T00:57:23.192Z,76.20
2023-07-10T01:01:09.279Z,76.40
2023-07-10T01:04:54.854Z,76.50
2023-07-10T01:08:37.948Z,76.50
2023-07-10T01:12:19.915Z,76.70
2023-07-10T01:16:02.608Z,76.80
2023-07-10T01:19:46.985Z,76.80
2023-07-10T01:23:28.814Z,76.80
2023-07-10T01:27:13.512Z,76.80
2023-07-10T01:30:57.354Z,77.00
2023-07-10T01:34:56.481Z,77.10
2023-07-10T01:38:39.339Z,76.70
2023-07-10T01:42:21.648Z,76.70
2023-07-10T01:46:16.708Z,76.80
2023-07-10T01:49:59.183Z,76.50
2023-07-10T01:53:42.950Z,77.00
2023-07-10T01:57:25.460Z,77.10
2023-07-10T02:01:07.281Z,77.20
2023-07-10T02:04:49.210Z,77.00
2023-07-10T02:08:31.071Z,77.10
2023-07-10T02:12:12.811Z,77.20
2023-07-10T02:15:55.433Z,77.20
2023-07-10T02:19:37.200Z,77.20
2023-07-10T02:23:18.984Z,77.10
2023-07-10T02:27:01.172Z,77.30
2023-07-10T02:30:42.894Z,77.20
2023-07-10T02:34:24.653Z,77.30
2023-07-10T02:38:06.409Z,77.30
2023-07-10T02:41:48.181Z,77.40
2023-07-10T02:45:29.922Z,77.60
2023-07-10T02:49:11.659Z,78.50
2023-07-10T02:52:53.482Z,77.70
2023-07-10T02:56:35.269Z,77.90
2023-07-10T03:00:17.131Z,77.90
2023-07-10T03:03:58.873Z,78.00
2023-07-10T03:07:40.586Z,78.00
2023-07-10T03:11:23.024Z,77.90
2023-07-10T03:15:05.579Z,77.70
2023-07-10T03:18:47.330Z,77.50
2023-07-10T03:22:29.063Z,77.60
2023-07-10T03:26:10.822Z,77.70
2023-07-10T03:29:52.560Z,77.90
2023-07-10T03:33:34.796Z,77.80
2023-07-10T03:37:16.745Z,77.80
2023-07-10T03:40:58.928Z,78.50
2023-07-10T03:44:40.791Z,77.80
2023-07-10T03:48:22.664Z,78.60
2023-07-10T03:52:05.581Z,78.10
2023-07-10T03:55:48.343Z,78.10
2023-07-10T03:59:30.193Z,78.20
2023-07-10T04:03:12.038Z,78.20
2023-07-10T04:06:53.867Z,78.20
2023-07-10T04:10:37.303Z,78.40
2023-07-10T04:14:19.089Z,78.50
2023-07-10T04:18:00.935Z,78.70
2023-07-10T04:21:42.694Z,78.90
2023-07-10T04:25:24.714Z,78.90
2023-07-10T04:29:07.570Z,78.80
2023-07-10T04:32:49.372Z,78.80
2023-07-10T04:36:31.175Z,79.10
2023-07-10T04:40:13.047Z,79.20
2023-07-10T04:43:54.939Z,79.20
2023-07-10T04:47:36.795Z,79.30
2023-07-10T04:51:19.427Z,79.30
2023-07-10T04:55:01.293Z,79.40
2023-07-10T04:58:53.497Z,79.20
2023-07-10T05:02:35.363Z,79.30
2023-07-10T05:06:17.501Z,79.20
2023-07-10T05:09:59.325Z,79.50
2023-07-10T05:13:41.175Z,79.60
2023-07-10T05:17:23.120Z,79.70
2023-07-10T05:21:04.999Z,80.00
2023-07-10T05:24:47.015Z,80.10
2023-07-10T05:28:29.126Z,80.10
2023-07-10T05:32:11.038Z,80.20
2023-07-10T05:35:53.900Z,80.20
2023-07-10T05:39:35.757Z,81.00
2023-07-10T05:43:20.960Z,80.70
2023-07-10T05:47:02.718Z,81.00
2023-07-10T05:50:45.806Z,81.80
2023-07-10T05:54:27.590Z,81.90
2023-07-10T05:58:48.699Z,82.40
2023-07-10T06:02:30.571Z,82.60
2023-07-10T06:06:12.524Z,82.20
2023-07-10T06:09:54.288Z,82.70
2023-07-10T06:13:36.187Z,82.80
2023-07-10T06:17:17.962Z,82.40
2023-07-10T06:21:00.579Z,82.60
2023-07-10T06:24:42.376Z,82.50
2023-07-10T06:28:24.511Z,82.50
2023-07-10T06:32:06.747Z,82.20
2023-07-10T06:35:48.603Z,82.00
2023-07-10T06:39:30.394Z,81.70
2023-07-10T06:43:12.122Z,81.70
2023-07-10T06:46:53.872Z,81.60
2023-07-10T06:50:35.694Z,81.70
2023-07-10T06:54:17.432Z,82.30
2023-07-10T06:57:59.239Z,81.50
2023-07-10T07:01:41.075Z,81.50
2023-07-10T07:05:22.859Z,81.40
2023-07-10T07:09:04.736Z,81.30
2023-07-10T07:12:46.486Z,81.10
2023-07-10T07:16:28.286Z,81.60
2023-07-10T07:20:10.250Z,81.40
2023-07-10T07:23:52.154Z,81.00
2023-07-10T07:27:34.021Z,80.90
2023-07-10T07:31:15.853Z,80.80
2023-07-10T07:34:57.612Z,80.60
2023-07-10T07:38:39.359Z,80.60
2023-07-10T07:42:21.705Z,80.50
2023-07-10T07:46:04.391Z,80.50
2023-07-10T07:49:46.562Z,80.40
2023-07-10T07:53:29.928Z,80.00
2023-07-10T07:57:11.644Z,80.10
2023-07-10T08:00:53.448Z,80.20
2023-07-10T08:04:35.382Z,80.10
2023-07-10T08:08:17.671Z,80.10
2023-07-10T08:12:00.634Z,80.00
2023-07-10T08:15:43.755Z,79.40
2023-07-10T08:19:25.502Z,78.80
2023-07-10T08:23:07.292Z,78.80
2023-07-10T08:26:49.296Z,78.60
2023-07-10T08:30:31.316Z,78.60
2023-07-10T08:34:13.260Z,78.60
2023-07-10T08:37:55.645Z,78.20
2023-07-10T08:41:37.660Z,78.00
2023-07-10T08:45:38.521Z,77.80
2023-07-10T08:49:31.259Z,78.20
2023-07-10T08:53:14.326Z,77.70
2023-07-10T08:57:10.691Z,77.80
2023-07-10T09:00:56.489Z,77.80
2023-07-10T09:04:38.964Z,77.60
2023-07-10T09:08:21.558Z,77.30
2023-07-10T09:12:09.468Z,78.00
2023-07-10T09:15:53.808Z,77.30
2023-07-10T09:19:35.780Z,77.00
2023-07-10T09:23:25.575Z,77.40
2023-07-10T09:27:12.385Z,76.50
2023-07-10T09:31:12.660Z,76.40
2023-07-10T09:34:59.332Z,76.20
2023-07-10T09:38:43.484Z,76.10
2023-07-10T09:42:32.267Z,76.00
2023-07-10T09:46:14.350Z,75.80
2023-07-10T09:49:57.687Z,75.60
2023-07-10T09:53:46.961Z,75.80
2023-07-10T09:57:29.309Z,75.80
2023-07-10T10:01:12.106Z,75.70
2023-07-10T10:05:01.355Z,75.80
2023-07-10T10:08:47.378Z,75.70
2023-07-10T10:12:31.247Z,75.80
2023-07-10T10:16:32.096Z,76.10
2023-07-10T10:20:18.593Z,75.80
2023-07-10T10:24:05.837Z,76.70
2023-07-10T10:27:56.904Z,76.10
2023-07-10T10:31:44.912Z,76.20
2023-07-10T10:35:32.654Z,76.20
2023-07-10T10:39:22.359Z,76.30
2023-07-10T10:43:22.618Z,76.40
2023-07-10T10:47:07.210Z,76.30
2023-07-10T10:51:17.397Z,76.00
2023-07-10T10:55:11.723Z,75.80
2023-07-10T10:59:01.582Z,75.40
2023-07-10T11:02:43.343Z,75.10
2023-07-10T11:06:27.933Z,75.40
2023-07-10T11:10:15.883Z,74.90
2023-07-10T11:13:57.829Z,74.80
2023-07-10T11:17:40.106Z,74.70
2023-07-10T11:21:22.632Z,74.90
2023-07-10T11:25:04.776Z,74.40
2023-07-10T11:29:09.581Z,74.60
2023-07-10T11:32:57.510Z,73.90
2023-07-10T11:36:45.815Z,73.90
2023-07-10T11:40:27.555Z,74.10
2023-07-10T11:44:15.214Z,74.40
2023-07-10T11:47:57.046Z,74.50
2023-07-10T11:51:40.004Z,74.60
2023-07-10T11:55:25.890Z,74.60
2023-07-10T11:59:23.090Z,74.30
2023-07-10T12:03:12.712Z,74.30
2023-07-10T12:06:57.709Z,73.50
2023-07-10T12:10:39.583Z,73.50
2023-07-10T12:14:21.690Z,73.10
2023-07-10T12:18:06.283Z,73.80
2023-07-10T12:21:48.082Z,73.40
2023-07-10T12:25:29.821Z,72.10
2023-07-10T12:29:15.617Z,71.60
2023-07-10T12:32:57.630Z,72.10
2023-07-10T12:36:39.953Z,72.50
2023-07-10T12:40:21.764Z,72.10
2023-07-10T12:44:03.768Z,72.10
2023-07-10T12:47:58.622Z,71.40
2023-07-10T12:51:42.761Z,71.70
2023-07-10T12:55:29.939Z,71.50
2023-07-10T12:59:20.936Z,71.50
2023-07-10T13:03:02.992Z,71.90
2023-07-10T13:06:45.470Z,71.70
2023-07-10T13:10:40.330Z,71.90
2023-07-10T13:14:30.212Z,71.80
2023-07-10T13:18:31.284Z,72.30
2023-07-10T13:22:13.268Z,73.20
2023-07-10T13:25:56.729Z,73.40
2023-07-10T13:29:38.509Z,74.50
2023-07-10T13:33:24.408Z,74.40
2023-07-10T13:37:26.429Z,75.00
2023-07-10T13:41:12.844Z,75.20
2023-07-10T13:44:55.818Z,75.40
2023-07-10T13:48:37.710Z,76.70
2023-07-10T13:52:21.148Z,76.90
2023-07-10T13:56:03.122Z,76.70
2023-07-10T13:59:45.268Z,78.30
2023-07-10T14:03:27.136Z,78.40
2023-07-10T14:07:10.017Z,79.60
2023-07-10T14:10:52.044Z,79.20
2023-07-10T14:14:33.793Z,79.40
2023-07-10T14:18:18.004Z,79.10
2023-07-10T14:21:59.814Z,79.90
2023-07-10T14:25:41.833Z,80.20
2023-07-10T14:29:23.639Z,80.10
2023-07-10T14:33:05.873Z,80.90
2023-07-10T14:36:47.904Z,81.70
2023-07-10T14:40:29.652Z,81.90
2023-07-10T14:44:11.480Z,81.10
2023-07-10T14:47:53.267Z,82.10
2023-07-10T14:51:35.121Z,81.90
2023-07-10T14:55:18.892Z,82.20
2023-07-10T14:59:00.721Z,82.30
2023-07-10T15:02:42.531Z,81.40
2023-07-10T15:06:29.318Z,81.00
2023-07-10T15:10:25.378Z,80.70
2023-07-10T15:14:12.614Z,80.90
2023-07-10T15:17:55.021Z,81.30
2023-07-10T15:21:36.797Z,81.00
2023-07-10T15:25:21.256Z,81.00
2023-07-10T15:29:04.475Z,81.00
2023-07-10T15:32:46.838Z,81.20
2023-07-10T15:36:28.614Z,81.40
2023-07-10T15:40:16.543Z,81.00
2023-07-10T15:43:58.348Z,81.00
2023-07-10T15:47:40.667Z,81.00
2023-07-10T15:51:26.841Z,81.30
2023-07-10T15:55:20.230Z,81.40
2023-07-10T15:59:02.069Z,81.20
2023-07-10T16:02:46.538Z,81.50
2023-07-10T16:06:30.134Z,81.10
2023-07-10T16:10:13.854Z,81.30
2023-07-10T16:13:55.613Z,81.30
2023-07-10T16:17:37.437Z,81.20
2023-07-10T16:21:21.644Z,81.30
2023-07-10T16:25:03.990Z,81.10
2023-07-10T16:28:46.191Z,81.00
2023-07-10T16:32:28.004Z,81.00
2023-07-10T16:36:12.410Z,81.00
2023-07-10T16:39:54.154Z,80.90
2023-07-10T16:43:36.022Z,80.60
2023-07-10T16:47:18.805Z,80.40
2023-07-10T16:51:02.459Z,80.30
2023-07-10T16:54:44.523Z,80.20
2023-07-10T16:58:27.655Z,80.10
2023-07-10T17:02:23.623Z,80.00
2023-07-10T17:06:05.612Z,79.90
2023-07-10T17:09:47.484Z,79.70
2023-07-10T17:13:31.399Z,79.70
2023-07-10T17:17:20.154Z,79.60
2023-07-10T17:21:03.479Z,79.60
2023-07-10T17:24:45.392Z,79.60
2023-07-10T17:28:28.878Z,79.60
2023-07-10T17:32:17.560Z,79.60
2023-07-10T17:35:59.810Z,79.40
2023-07-10T17:39:41.899Z,79.40
2023-07-10T17:43:23.728Z,79.50
2023-07-10T17:47:05.493Z,79.50
2023-07-10T17:50:47.890Z,79.40
2023-07-10T17:54:30.479Z,79.40
2023-07-10T17:58:16.336Z,79.50
2023-07-10T18:01:59.781Z,79.30
2023-07-10T18:05:41.964Z,79.20
2023-07-10T18:09:25.267Z,79.20
2023-07-10T18:13:14.598Z,79.20
2023-07-10T18:16:56.390Z,79.10
2023-07-10T18:20:38.209Z,79.10
2023-07-10T18:24:21.380Z,79.10
2023-07-10T18:28:03.246Z,79.10
2023-07-10T18:31:45.357Z,79.10
2023-07-10T18:35:27.229Z,79.10
2023-07-10T18:39:11.644Z,79.20
2023-07-10T18:42:53.422Z,79.10
2023-07-10T18:46:35.284Z,79.10
2023-07-10T18:50:18.047Z,79.20
2023-07-10T18:54:01.957Z,79.20
2023-07-10T18:57:43.835Z,79.20
2023-07-10T19:01:26.150Z,79.30
2023-07-10T19:05:08.429Z,79.30
2023-07-10T19:08:50.411Z,79.60
2023-07-10T19:12:32.166Z,79.50
2023-07-10T19:16:25.363Z,79.50
2023-07-10T19:20:16.072Z,79.50
2023-07-10T19:23:58.056Z,79.50
2023-07-10T19:27:39.806Z,79.60
2023-07-10T19:31:22.690Z,79.60
2023-07-10T19:35:04.813Z,79.60
2023-07-10T19:38:46.809Z,79.60
2023-07-10T19:42:28.684Z,79.60
2023-07-10T19:46:18.788Z,79.70
2023-07-10T19:50:00.621Z,79.90
2023-07-10T19:53:42.731Z,80.00
2023-07-10T19:57:28.265Z,80.20
2023-07-10T20:01:11.888Z,80.30
2023-07-10T20:04:53.657Z,80.40
2023-07-10T20:08:35.818Z,80.40
2023-07-10T20:12:21.910Z,80.30
2023-07-10T20:16:05.432Z,80.40
2023-07-10T20:19:47.623Z,80.50
2023-07-10T20:23:29.432Z,80.50
2023-07-10T20:27:11.528Z,80.60
2023-07-10T20:30:54.126Z,80.60
2023-07-10T20:34:35.911Z,80.70
2023-07-10T20:38:20.495Z,80.70
2023-07-10T20:42:04.262Z,80.70
2023-07-10T20:45:50.381Z,80.90
2023-07-10T20:49:32.333Z,80.90
2023-07-10T20:53:14.517Z,81.00
2023-07-10T20:56:56.281Z,81.00
2023-07-10T21:00:38.318Z,81.20
2023-07-10T21:04:20.433Z,81.20
2023-07-10T21:08:02.540Z,81.30
2023-07-10T21:11:44.324Z,81.40
2023-07-10T21:15:26.394Z,82.00
2023-07-10T21:19:14.144Z,82.40
2023-07-10T21:22:56.841Z,82.60
2023-07-10T21:26:39.248Z,82.60
2023-07-10T21:30:21.648Z,82.60
2023-07-10T21:34:05.947Z,82.90
2023-07-10T21:37:47.714Z,82.90
2023-07-10T21:41:30.757Z,83.20
2023-07-10T21:45:15.158Z,83.70
2023-07-10T21:48:57.410Z,84.30
2023-07-10T21:52:39.192Z,84.20
2023-07-10T21:56:22.716Z,84.40
2023-07-10T22:00:09.004Z,85.60
2023-07-10T22:03:50.841Z,85.80
2023-07-10T22:07:32.646Z,86.40
2023-07-10T22:11:16.765Z,86.40
2023-07-10T22:14:58.538Z,87.90
2023-07-10T22:18:40.528Z,87.80
2023-07-10T22:22:22.984Z,89.40
2023-07-10T22:26:05.147Z,88.70
2023-07-10T22:29:47.247Z,89.90
2023-07-10T22:33:30.300Z,90.10
2023-07-10T22:37:12.124Z,89.90
2023-07-10T22:40:56.266Z,90.70
2023-07-10T22:44:38.092Z,90.80
2023-07-10T22:48:19.890Z,90.90
2023-07-10T22:52:01.655Z,91.10
2023-07-10T22:55:43.426Z,91.90
2023-07-10T22:59:25.195Z,92.30
2023-07-10T23:03:07.224Z,92.40
2023-07-10T23:06:49.143Z,92.80
2023-07-10T23:10:31.330Z,92.50
2023-07-10T23:14:13.074Z,92.20
2023-07-10T23:17:54.869Z,92.30
2023-07-10T23:21:36.658Z,92.50
2023-07-10T23:25:18.637Z,92.80
2023-07-10T23:29:01.546Z,92.80
2023-07-10T23:32:43.398Z,93.00
2023-07-10T23:36:26.621Z,93.20
2023-07-10T23:40:16.763Z,93.10
2023-07-10T23:43:58.652Z,93.60
2023-07-10T23:47:41.746Z,93.20
2023-07-10T23:51:23.560Z,93.20
2023-07-10T23:55:08.128Z,93.20
2023-07-10T23:58:49.932Z,93.50
